ARG200 SAEZ-SBGL
Flight info
| Callsign | ARG200 |
|---|---|
| Flight time | N/A |
| Altitude | 33000 |
| Route | KUKE1E KUKEN UM654 GAMOT USTUN DOKRO UN857 AKNUB PABE1B |
| Aircraft | B742/H-VGDW/C |
Departure
| Time | 2026-04-29 20:33 |
|---|---|
| Airport | Ezeiza International Airport - Ministro Pistarini (SAEZ) |
Arrival
| Time | N/A |
|---|---|
| Airport | Rio Galeão – Tom Jobim International Airport (SBGL) |
| Time | Latitude | Longitude | Altitude | Speed | Heading |
|---|---|---|---|---|---|
| 2026-04-29 19:58 | -34.81609 | -58.53981 | 81 ft | 0 kts | 319° |
| 2026-04-29 20:20 | -34.81614 | -58.53976 | 80 ft | 2 kts | 319° |
| 2026-04-29 20:21 | -34.81625 | -58.53963 | 80 ft | 2 kts | 319° |
| 2026-04-29 20:21 | -34.81637 | -58.53951 | 80 ft | 2 kts | 319° |
| 2026-04-29 20:21 | -34.81648 | -58.53939 | 80 ft | 2 kts | 319° |
| 2026-04-29 20:21 | -34.81659 | -58.53928 | 80 ft | 2 kts | 319° |
| 2026-04-29 20:22 | -34.81670 | -58.53915 | 80 ft | 2 kts | 319° |
| 2026-04-29 20:22 | -34.81681 | -58.53903 | 80 ft | 2 kts | 319° |
| 2026-04-29 20:22 | -34.81693 | -58.53892 | 79 ft | 2 kts | 333° |
| 2026-04-29 20:22 | -34.81708 | -58.53886 | 79 ft | 2 kts | 355° |
| 2026-04-29 20:23 | -34.81723 | -58.53888 | 79 ft | 2 kts | 15° |
| 2026-04-29 20:23 | -34.81737 | -58.53895 | 79 ft | 2 kts | 35° |
| 2026-04-29 20:23 | -34.81748 | -58.53908 | 79 ft | 2 kts | 54° |
| 2026-04-29 20:23 | -34.81752 | -58.53915 | 79 ft | 1 kts | 63° |
| 2026-04-29 20:24 | -34.81753 | -58.53918 | 79 ft | 0 kts | 62° |
| 2026-04-29 20:24 | -34.81753 | -58.53917 | 79 ft | 0 kts | 62° |
| 2026-04-29 20:26 | -34.81752 | -58.53916 | 79 ft | 1 kts | 57° |
| 2026-04-29 20:26 | -34.81743 | -58.53908 | 79 ft | 5 kts | 33° |
| 2026-04-29 20:26 | -34.81703 | -58.53850 | 79 ft | 11 kts | 67° |
| 2026-04-29 20:26 | -34.81710 | -58.53753 | 79 ft | 11 kts | 126° |
| 2026-04-29 20:27 | -34.81759 | -58.53714 | 78 ft | 14 kts | 153° |
| 2026-04-29 20:27 | -34.81823 | -58.53677 | 78 ft | 15 kts | 154° |
| 2026-04-29 20:27 | -34.81876 | -58.53644 | 77 ft | 7 kts | 142° |
| 2026-04-29 20:27 | -34.81924 | -58.53524 | 76 ft | 19 kts | 105° |
| 2026-04-29 20:28 | -34.81961 | -58.53343 | 75 ft | 24 kts | 104° |
| 2026-04-29 20:28 | -34.82003 | -58.53135 | 74 ft | 25 kts | 103° |
| 2026-04-29 20:28 | -34.82044 | -58.52931 | 73 ft | 24 kts | 103° |
| 2026-04-29 20:28 | -34.82082 | -58.52734 | 73 ft | 26 kts | 103° |
| 2026-04-29 20:29 | -34.82131 | -58.52491 | 72 ft | 30 kts | 103° |
| 2026-04-29 20:29 | -34.82181 | -58.52243 | 71 ft | 29 kts | 103° |
| 2026-04-29 20:29 | -34.82228 | -58.52005 | 70 ft | 28 kts | 103° |
| 2026-04-29 20:29 | -34.82265 | -58.51819 | 68 ft | 10 kts | 104° |
| 2026-04-29 20:30 | -34.82305 | -58.51778 | 68 ft | 7 kts | 182° |
| 2026-04-29 20:30 | -34.82339 | -58.51785 | 68 ft | 0 kts | 191° |
| 2026-04-29 20:30 | -34.82387 | -58.51797 | 68 ft | 12 kts | 192° |
| 2026-04-29 20:31 | -34.82467 | -58.51817 | 68 ft | 10 kts | 191° |
| 2026-04-29 20:31 | -34.82523 | -58.51854 | 68 ft | 8 kts | 237° |
| 2026-04-29 20:31 | -34.82529 | -58.51896 | 68 ft | 3 kts | 294° |
| 2026-04-29 20:31 | -34.82515 | -58.51950 | 69 ft | 0 kts | 283° |
| 2026-04-29 20:32 | -34.82515 | -58.51951 | 69 ft | 0 kts | 283° |
| 2026-04-29 20:32 | -34.82505 | -58.52002 | 69 ft | 27 kts | 283° |
| 2026-04-29 20:32 | -34.82411 | -58.52529 | 73 ft | 95 kts | 282° |
| 2026-04-29 20:32 | -34.82295 | -58.53178 | 74 ft | 135 kts | 282° |
| 2026-04-29 20:33 | -34.81959 | -58.54979 | 298 ft | 181 kts | 282° |
| 2026-04-29 20:33 | -34.81661 | -58.56515 | 795 ft | 193 kts | 281° |
| 2026-04-29 20:33 | -34.81340 | -58.58118 | 1328 ft | 207 kts | 281° |
| 2026-04-29 20:33 | -34.81025 | -58.59867 | 1955 ft | 216 kts | 276° |
| 2026-04-29 20:34 | -34.81224 | -58.61649 | 2714 ft | 216 kts | 241° |
| 2026-04-29 20:34 | -34.82194 | -58.63014 | 3454 ft | 219 kts | 228° |
| 2026-04-29 20:34 | -34.83263 | -58.64341 | 4110 ft | 225 kts | 229° |
| 2026-04-29 20:34 | -34.84357 | -58.65741 | 4777 ft | 230 kts | 229° |
| 2026-04-29 20:35 | -34.85474 | -58.67190 | 5215 ft | 233 kts | 229° |
| 2026-04-29 20:35 | -34.86592 | -58.68650 | 5585 ft | 236 kts | 229° |
| 2026-04-29 20:35 | -34.87734 | -58.70143 | 5940 ft | 241 kts | 229° |
| 2026-04-29 20:35 | -34.88891 | -58.71660 | 6460 ft | 247 kts | 229° |
| 2026-04-29 20:36 | -34.90240 | -58.72963 | 7291 ft | 254 kts | 205° |
| 2026-04-29 20:36 | -34.92010 | -58.73215 | 8201 ft | 265 kts | 174° |
| 2026-04-29 20:36 | -34.93665 | -58.72276 | 9133 ft | 276 kts | 144° |
| 2026-04-29 20:36 | -34.94828 | -58.70305 | 9808 ft | 292 kts | 116° |
| 2026-04-29 20:37 | -34.95366 | -58.67852 | 10174 ft | 315 kts | 94° |
| 2026-04-29 20:37 | -34.94986 | -58.65107 | 10342 ft | 342 kts | 67° |
| 2026-04-29 20:37 | -34.93778 | -58.62497 | 10459 ft | 369 kts | 50° |
| 2026-04-29 20:37 | -34.91865 | -58.60204 | 10624 ft | 395 kts | 33° |
| 2026-04-29 20:38 | -34.89390 | -58.58538 | 11144 ft | 405 kts | 18° |
| 2026-04-29 20:38 | -34.86758 | -58.57404 | 12336 ft | 403 kts | 14° |
| 2026-04-29 20:38 | -34.84043 | -58.56343 | 13295 ft | 407 kts | 13° |
| 2026-04-29 20:38 | -34.81357 | -58.55299 | 14220 ft | 412 kts | 13° |
| 2026-04-29 20:39 | -34.78616 | -58.54204 | 15082 ft | 420 kts | 14° |
| 2026-04-29 20:39 | -34.75998 | -58.53128 | 15937 ft | 425 kts | 14° |
| 2026-04-29 20:39 | -34.73148 | -58.51922 | 16823 ft | 432 kts | 15° |
| 2026-04-29 20:39 | -34.70368 | -58.50706 | 17706 ft | 437 kts | 15° |
| 2026-04-29 20:40 | -34.67534 | -58.49434 | 18510 ft | 444 kts | 15° |
| 2026-04-29 20:40 | -34.65251 | -58.48380 | 19181 ft | 448 kts | 16° |
| 2026-04-29 20:40 | -34.62271 | -58.46977 | 19971 ft | 455 kts | 17° |
| 2026-04-29 20:40 | -34.59333 | -58.45545 | 20812 ft | 460 kts | 17° |
| 2026-04-29 20:41 | -34.56352 | -58.44065 | 21466 ft | 467 kts | 18° |
| 2026-04-29 20:41 | -34.53332 | -58.42521 | 22240 ft | 471 kts | 18° |
| 2026-04-29 20:41 | -34.50314 | -58.40938 | 22926 ft | 476 kts | 19° |
| 2026-04-29 20:41 | -34.47225 | -58.39287 | 23583 ft | 482 kts | 19° |
| 2026-04-29 20:42 | -34.44143 | -58.37602 | 24245 ft | 486 kts | 19° |
| 2026-04-29 20:42 | -34.41031 | -58.35892 | 24709 ft | 493 kts | 20° |
| 2026-04-29 20:42 | -34.37896 | -58.34167 | 25239 ft | 498 kts | 19° |
| 2026-04-29 20:42 | -34.34674 | -58.32538 | 25775 ft | 497 kts | 14° |
| 2026-04-29 20:43 | -34.31407 | -58.31087 | 26260 ft | 503 kts | 15° |
| 2026-04-29 20:43 | -34.28155 | -58.29361 | 26676 ft | 512 kts | 21° |
| 2026-04-29 20:43 | -34.24999 | -58.27275 | 27184 ft | 518 kts | 26° |
| 2026-04-29 20:43 | -34.21955 | -58.24944 | 27545 ft | 526 kts | 29° |
| 2026-04-29 20:44 | -34.18899 | -58.22386 | 27952 ft | 532 kts | 31° |
| 2026-04-29 20:44 | -34.15889 | -58.19757 | 28331 ft | 536 kts | 32° |
| 2026-04-29 20:44 | -34.12881 | -58.17085 | 28845 ft | 537 kts | 32° |
| 2026-04-29 20:44 | -34.09840 | -58.14381 | 29110 ft | 544 kts | 32° |
| 2026-04-29 20:45 | -34.06766 | -58.11658 | 29563 ft | 544 kts | 32° |
| 2026-04-29 20:45 | -34.03732 | -58.08982 | 30205 ft | 540 kts | 32° |
| 2026-04-29 20:45 | -34.00728 | -58.06343 | 30600 ft | 540 kts | 32° |
| 2026-04-29 20:45 | -33.97688 | -58.03681 | 30967 ft | 541 kts | 32° |
| 2026-04-29 20:46 | -33.94644 | -58.01017 | 31430 ft | 538 kts | 32° |
| 2026-04-29 20:46 | -33.91592 | -57.98349 | 31664 ft | 542 kts | 32° |
| 2026-04-29 20:46 | -33.88534 | -57.95676 | 32001 ft | 542 kts | 32° |
| 2026-04-29 20:46 | -33.85431 | -57.92964 | 32370 ft | 541 kts | 32° |
| 2026-04-29 20:47 | -33.82417 | -57.90331 | 32698 ft | 540 kts | 32° |
| 2026-04-29 20:47 | -33.79345 | -57.87651 | 32889 ft | 543 kts | 32° |
| 2026-04-29 20:47 | -33.73490 | -57.82559 | 32953 ft | 556 kts | 32° |
| 2026-04-29 20:48 | -33.66821 | -57.76765 | 32944 ft | 561 kts | 32° |
| 2026-04-29 20:48 | -33.60497 | -57.71268 | 32958 ft | 561 kts | 32° |
| 2026-04-29 20:49 | -33.54284 | -57.65885 | 32950 ft | 551 kts | 32° |
| 2026-04-29 20:49 | -33.48000 | -57.60459 | 32952 ft | 557 kts | 32° |
| 2026-04-29 20:50 | -33.41708 | -57.55039 | 32953 ft | 560 kts | 32° |
| 2026-04-29 20:50 | -33.35517 | -57.49703 | 32962 ft | 554 kts | 32° |
| 2026-04-29 20:51 | -33.29284 | -57.44345 | 32958 ft | 555 kts | 32° |
| 2026-04-29 20:51 | -33.23027 | -57.38978 | 32968 ft | 555 kts | 32° |
| 2026-04-29 20:52 | -33.16730 | -57.33587 | 32953 ft | 552 kts | 31° |
| 2026-04-29 20:52 | -33.11272 | -57.28983 | 32964 ft | 553 kts | 31° |
| 2026-04-29 20:53 | -33.05315 | -57.23942 | 32960 ft | 553 kts | 31° |